createdAt,value
2018-05-31T00:01:06.597Z,99.50
2018-05-31T00:05:59.964Z,99.60
2018-05-31T00:10:54.110Z,99.50
2018-05-31T00:15:47.504Z,99.70
2018-05-31T00:20:40.881Z,99.70
2018-05-31T00:25:34.229Z,99.30
2018-05-31T00:30:29.631Z,99.50
2018-05-31T00:40:45.239Z,99.00
2018-05-31T00:45:38.573Z,99.00
2018-05-31T00:50:31.922Z,98.80
2018-05-31T01:00:47.289Z,98.60
2018-05-31T01:05:40.661Z,98.80
2018-05-31T01:10:34.091Z,99.00
2018-05-31T01:15:28.296Z,99.00
2018-05-31T01:20:21.686Z,98.60
2018-05-31T01:25:15.049Z,98.20
2018-05-31T01:30:08.414Z,98.30
2018-05-31T01:35:02.674Z,98.00
2018-05-31T01:39:56.061Z,98.60
2018-05-31T01:44:49.371Z,99.00
2018-05-31T01:49:43.461Z,98.30
2018-05-31T01:54:36.802Z,97.60
2018-05-31T01:59:30.346Z,98.70
2018-05-31T02:04:23.728Z,99.00
2018-05-31T02:09:17.068Z,98.70
2018-05-31T02:14:11.143Z,99.30
2018-05-31T02:19:04.968Z,99.30
2018-05-31T02:23:58.309Z,98.40
2018-05-31T02:28:51.690Z,98.90
2018-05-31T02:33:45.017Z,99.20
2018-05-31T02:38:38.361Z,99.10
2018-05-31T02:43:31.712Z,98.60
2018-05-31T02:48:25.114Z,99.10
2018-05-31T02:53:18.430Z,99.20
2018-05-31T02:58:11.789Z,99.20
2018-05-31T03:03:05.222Z,99.60
2018-05-31T03:07:58.637Z,98.70
2018-05-31T03:12:52.531Z,99.20
2018-05-31T03:17:45.968Z,98.30
2018-05-31T03:22:39.330Z,98.90
2018-05-31T03:27:32.741Z,99.60
2018-05-31T03:32:26.083Z,99.40
2018-05-31T03:37:19.480Z,99.60
2018-05-31T03:42:12.819Z,99.60
2018-05-31T03:47:06.920Z,99.80
2018-05-31T03:52:00.304Z,99.80
2018-05-31T03:56:54.509Z,99.90
2018-05-31T04:01:47.916Z,99.90
2018-05-31T04:06:41.372Z,99.90
2018-05-31T04:11:34.737Z,99.90
2018-05-31T04:16:29.911Z,99.90
2018-05-31T04:21:23.293Z,99.90
2018-05-31T04:26:16.692Z,99.90
2018-05-31T04:31:10.082Z,99.90
2018-05-31T04:36:08.862Z,99.90
2018-05-31T04:41:02.275Z,99.90
2018-05-31T04:45:56.389Z,99.10
2018-05-31T04:50:50.460Z,98.70
2018-05-31T04:55:43.861Z,98.70
2018-05-31T05:00:41.050Z,98.80
2018-05-31T05:05:34.421Z,98.50
2018-05-31T05:10:28.872Z,97.90
2018-05-31T05:15:22.203Z,97.40
2018-05-31T05:20:18.854Z,96.90
2018-05-31T05:25:12.215Z,97.40
2018-05-31T05:30:06.361Z,96.30
2018-05-31T05:34:59.742Z,96.30
2018-05-31T05:39:53.147Z,96.90
2018-05-31T05:44:46.529Z,97.20
2018-05-31T05:49:39.959Z,96.80
2018-05-31T05:54:33.392Z,97.10
2018-05-31T05:59:27.073Z,96.80
2018-05-31T06:04:21.875Z,96.20
2018-05-31T06:09:15.241Z,96.30
2018-05-31T06:14:08.738Z,96.20
2018-05-31T06:19:02.337Z,96.00
2018-05-31T06:23:58.159Z,95.60
2018-05-31T06:28:53.994Z,95.60
2018-05-31T06:33:47.417Z,95.90
2018-05-31T06:38:41.795Z,95.90
2018-05-31T06:43:35.131Z,95.90
2018-05-31T06:48:28.664Z,95.70
2018-05-31T06:53:22.011Z,95.10
2018-05-31T06:58:16.086Z,95.00
2018-05-31T07:03:10.369Z,94.30
2018-05-31T07:08:03.861Z,95.10
2018-05-31T07:12:57.196Z,94.00
2018-05-31T07:17:50.600Z,93.50
2018-05-31T07:22:44.738Z,93.40
2018-05-31T07:27:40.145Z,93.40
2018-05-31T07:32:33.595Z,93.00
2018-05-31T07:37:27.097Z,91.60
2018-05-31T07:42:21.905Z,91.70
2018-05-31T07:47:16.942Z,93.10
2018-05-31T07:52:11.738Z,93.70
2018-05-31T07:57:06.997Z,93.60
2018-05-31T08:02:00.585Z,92.90
2018-05-31T08:12:07.522Z,91.50
2018-05-31T08:17:01.040Z,87.00
2018-05-31T08:21:54.410Z,87.50
2018-05-31T08:26:47.832Z,90.00
2018-05-31T08:31:42.479Z,87.90
2018-05-31T08:36:36.582Z,87.70
2018-05-31T08:41:29.954Z,86.10
2018-05-31T08:52:11.135Z,88.40
2018-05-31T08:57:05.737Z,87.10
2018-05-31T09:01:59.251Z,86.60
2018-05-31T09:06:52.700Z,85.30
2018-05-31T09:11:46.260Z,86.30
2018-05-31T09:16:39.861Z,87.50
2018-05-31T09:21:34.770Z,85.90
2018-05-31T09:26:28.245Z,84.80
2018-05-31T09:31:23.245Z,85.00
2018-05-31T09:41:33.595Z,84.30
2018-05-31T09:46:30.887Z,85.90
2018-05-31T09:51:24.543Z,85.90
2018-05-31T09:56:18.889Z,84.50
2018-05-31T10:01:12.433Z,84.30
2018-05-31T10:06:07.232Z,86.50
2018-05-31T10:11:01.154Z,86.00
2018-05-31T10:15:54.629Z,88.70
2018-05-31T10:20:48.798Z,88.50
2018-05-31T10:31:07.457Z,86.30
2018-05-31T10:36:00.943Z,84.50
2018-05-31T10:40:54.381Z,86.50
2018-05-31T10:45:47.964Z,83.00
2018-05-31T10:50:43.894Z,81.80
2018-05-31T10:55:37.204Z,81.70
2018-05-31T11:00:31.881Z,79.80
2018-05-31T11:05:25.224Z,79.80
2018-05-31T11:10:18.545Z,80.90
2018-05-31T11:20:33.124Z,76.60
2018-05-31T11:25:26.550Z,73.80
2018-05-31T11:30:20.646Z,75.00
2018-05-31T11:35:13.997Z,75.00
2018-05-31T11:40:08.360Z,71.80
2018-05-31T11:45:01.805Z,69.50
2018-05-31T11:49:56.340Z,71.20
2018-05-31T11:54:50.217Z,67.80
2018-05-31T11:59:45.216Z,71.70
2018-05-31T12:04:39.121Z,71.70
2018-05-31T12:09:33.472Z,67.90
2018-05-31T12:14:27.211Z,68.00
2018-05-31T12:19:20.675Z,70.20
2018-05-31T12:24:13.985Z,69.30
2018-05-31T12:29:07.374Z,67.90
2018-05-31T12:34:00.676Z,67.70
2018-05-31T12:38:53.972Z,73.20
2018-05-31T12:43:47.303Z,70.50
2018-05-31T12:48:40.603Z,67.90
2018-05-31T12:53:34.690Z,70.20
2018-05-31T12:58:28.747Z,72.50
2018-05-31T13:03:22.078Z,72.00
2018-05-31T13:08:17.250Z,66.40
2018-05-31T13:13:10.555Z,66.30
2018-05-31T13:18:06.880Z,67.80
2018-05-31T13:23:00.170Z,67.20
2018-05-31T13:27:53.531Z,66.10
2018-05-31T13:32:46.823Z,62.70
2018-05-31T13:37:40.137Z,67.90
2018-05-31T13:42:34.283Z,69.70
2018-05-31T13:47:27.608Z,68.70
2018-05-31T13:52:21.669Z,62.60
2018-05-31T13:57:15.015Z,62.60
2018-05-31T14:02:08.312Z,64.50
2018-05-31T14:07:01.633Z,63.20
2018-05-31T14:11:55.705Z,59.10
2018-05-31T14:16:49.003Z,59.00
2018-05-31T14:21:42.315Z,63.20
2018-05-31T14:26:35.611Z,59.90
2018-05-31T14:31:28.914Z,65.60
2018-05-31T14:36:22.214Z,62.70
2018-05-31T14:41:16.319Z,65.40
2018-05-31T14:46:09.602Z,65.40
2018-05-31T14:51:02.908Z,64.00
2018-05-31T14:55:56.215Z,62.60
2018-05-31T15:00:49.589Z,61.30
2018-05-31T15:05:42.907Z,61.00
2018-05-31T15:10:36.195Z,66.40
2018-05-31T15:15:29.514Z,69.60
2018-05-31T15:20:22.823Z,64.80
2018-05-31T15:25:16.967Z,67.60
2018-05-31T15:30:10.294Z,67.50
2018-05-31T15:35:04.391Z,67.00
2018-05-31T15:39:58.451Z,66.00
2018-05-31T15:44:51.801Z,66.00
2018-05-31T15:49:45.171Z,69.80
2018-05-31T15:54:38.491Z,69.30
2018-05-31T15:59:31.816Z,67.90
2018-05-31T16:04:25.104Z,67.00
2018-05-31T16:09:19.174Z,71.50
2018-05-31T16:14:13.226Z,70.50
2018-05-31T16:19:06.519Z,70.50
2018-05-31T16:24:01.435Z,73.60
2018-05-31T16:28:54.749Z,73.30
2018-05-31T16:33:48.063Z,77.40
2018-05-31T16:38:41.359Z,71.60
2018-05-31T16:43:34.657Z,75.80
2018-05-31T16:48:28.748Z,80.70
2018-05-31T16:53:22.837Z,76.00
2018-05-31T16:58:16.193Z,76.00
2018-05-31T17:03:09.576Z,77.00
2018-05-31T17:08:02.950Z,76.50
2018-05-31T17:12:56.263Z,77.30
2018-05-31T17:17:50.337Z,78.30
2018-05-31T17:22:43.655Z,78.30
2018-05-31T17:27:36.974Z,80.40
2018-05-31T17:32:30.455Z,81.10
2018-05-31T17:37:23.794Z,79.30
2018-05-31T17:42:30.794Z,79.20
2018-05-31T17:47:24.885Z,80.50
2018-05-31T17:52:18.284Z,80.50
2018-05-31T17:57:11.614Z,83.50
2018-05-31T18:02:04.925Z,84.30
2018-05-31T18:06:58.257Z,84.50
2018-05-31T18:11:51.572Z,84.50
2018-05-31T18:16:44.859Z,85.10
2018-05-31T18:21:38.162Z,85.80
2018-05-31T18:26:31.469Z,84.40
2018-05-31T18:31:24.783Z,86.20
2018-05-31T18:36:18.082Z,85.90
2018-05-31T18:41:12.925Z,86.30
2018-05-31T18:46:06.236Z,86.10
2018-05-31T18:51:00.437Z,88.70
2018-05-31T18:55:53.732Z,88.70
2018-05-31T19:00:47.876Z,89.10
2018-05-31T19:05:45.367Z,88.90
2018-05-31T19:10:39.565Z,89.50
2018-05-31T19:15:32.914Z,89.10
2018-05-31T19:20:27.126Z,90.00
2018-05-31T19:25:20.452Z,89.90
2018-05-31T19:30:19.294Z,89.60
2018-05-31T19:35:18.010Z,90.10
2018-05-31T19:40:11.339Z,90.30
2018-05-31T19:45:04.645Z,80.00
2018-05-31T19:49:57.934Z,78.20
2018-05-31T19:54:51.998Z,78.20
2018-05-31T19:59:50.823Z,78.10
2018-05-31T20:04:44.125Z,79.10
2018-05-31T20:09:37.432Z,80.10
2018-05-31T20:14:31.930Z,81.80
2018-05-31T20:19:26.075Z,83.70
2018-05-31T20:24:20.422Z,83.70
2018-05-31T20:29:14.607Z,85.30
2018-05-31T20:34:07.928Z,86.00
2018-05-31T20:39:01.225Z,85.00
2018-05-31T20:43:54.514Z,87.00
2018-05-31T20:48:47.882Z,88.10
2018-05-31T20:53:41.210Z,91.70
2018-05-31T20:58:35.333Z,95.80
2018-05-31T21:03:28.640Z,95.80
2018-05-31T21:08:21.959Z,98.10
2018-05-31T21:13:15.294Z,98.30
2018-05-31T21:18:08.588Z,97.40
2018-05-31T21:23:01.912Z,98.10
2018-05-31T21:27:56.007Z,98.90
2018-05-31T21:32:50.186Z,99.30
2018-05-31T21:37:44.326Z,99.80
2018-05-31T21:42:37.761Z,99.80
2018-05-31T21:47:31.122Z,99.90
2018-05-31T21:52:24.576Z,99.90
2018-05-31T21:57:17.936Z,99.90
2018-05-31T22:02:11.417Z,99.90
2018-05-31T22:07:04.758Z,99.90
2018-05-31T22:11:58.157Z,99.90
2018-05-31T22:16:52.279Z,99.90
2018-05-31T22:21:45.594Z,99.90
2018-05-31T22:26:39.787Z,99.90
2018-05-31T22:31:33.135Z,99.90
2018-05-31T22:36:26.488Z,99.90
2018-05-31T22:41:19.791Z,99.90
2018-05-31T22:46:13.110Z,98.20
2018-05-31T22:51:06.429Z,99.30
2018-05-31T22:55:59.752Z,99.60
2018-05-31T23:00:53.095Z,98.80
2018-05-31T23:05:46.395Z,98.60
2018-05-31T23:10:39.706Z,99.20
2018-05-31T23:15:32.992Z,98.80
2018-05-31T23:20:27.048Z,98.20
2018-05-31T23:25:20.355Z,98.10
2018-05-31T23:30:14.462Z,98.10
2018-05-31T23:35:07.754Z,98.10
2018-05-31T23:40:01.035Z,98.70
2018-05-31T23:44:54.330Z,98.80
2018-05-31T23:49:47.625Z,99.70
2018-05-31T23:54:40.954Z,99.60
2018-05-31T23:59:34.990Z,99.30
